Time;durP1;ratioP1;P1;durP2;ratioP2;P2;SDS_P1;SDS_P2;PMS_P1;PMS_P2;Temp;Humidity;BMP_temperature;BMP_pressure;BME280_temperature;BME280_humidity;BME280_pressure;Samples;Min_cycle;Max_cycle;Signal;HPM_P1;HPM_P2
2021/09/03 00:01:38;;;;;;;14.18;7.70;;;460.90;2380.80;;;;;;5034430;28;20025;-77
2021/09/03 00:04:04;;;;;;;13.05;7.50;;;461.00;2380.80;;;;;;5037265;28;20119;-80
2021/09/03 00:06:30;;;;;;;15.25;9.15;;;460.90;2380.80;;;;;;5033537;28;20034;-78
2021/09/03 00:08:56;;;;;;;14.48;7.47;;;460.80;2380.80;;;;;;5033715;28;20373;-79
2021/09/03 00:11:22;;;;;;;12.85;7.78;;;460.90;2380.80;;;;;;5033349;28;20032;-76
2021/09/03 00:13:48;;;;;;;14.95;7.68;;;460.80;2380.80;;;;;;5033346;28;20030;-77
2021/09/03 00:16:14;;;;;;;11.40;7.30;;;460.80;2380.80;;;;;;5034358;28;20030;-79
2021/09/03 00:18:40;;;;;;;9.38;7.07;;;460.80;2380.80;;;;;;5032756;28;20488;-80
2021/09/03 00:21:06;;;;;;;13.23;7.80;;;460.80;2380.80;;;;;;5034220;28;20025;-78
2021/09/03 00:23:32;;;;;;;12.38;7.10;;;460.80;2380.80;;;;;;5032967;28;20029;-76
2021/09/03 00:25:57;;;;;;;15.98;8.27;;;460.80;2380.80;;;;;;5032928;28;20034;-78
2021/09/03 00:28:23;;;;;;;14.07;6.90;;;460.80;2380.80;;;;;;5034106;28;20061;-80
2021/09/03 00:30:49;;;;;;;11.30;7.00;;;460.80;2380.80;;;;;;5032765;28;20033;-80
2021/09/03 00:33:15;;;;;;;12.18;7.05;;;461.00;2380.80;;;;;;5033712;28;20038;-80
2021/09/03 00:35:40;;;;;;;12.43;6.88;;;461.00;2380.80;;;;;;5033977;28;20381;-79
2021/09/03 00:38:06;;;;;;;12.95;7.03;;;461.00;2380.80;;;;;;5032499;28;20030;-78
2021/09/03 00:40:32;;;;;;;14.70;8.10;;;460.90;2380.80;;;;;;5032785;28;20032;-80
2021/09/03 00:42:58;;;;;;;11.38;7.20;;;460.80;2380.80;;;;;;5034286;28;20362;-80
2021/09/03 00:45:24;;;;;;;10.82;7.13;;;460.90;2380.80;;;;;;5032495;28;20116;-77
2021/09/03 00:47:49;;;;;;;12.75;7.60;;;460.90;2380.80;;;;;;5032347;28;20626;-77
2021/09/03 00:50:15;;;;;;;13.10;8.60;;;461.00;2380.80;;;;;;5032567;28;20022;-79
2021/09/03 00:52:41;;;;;;;11.60;7.65;;;460.90;2380.80;;;;;;5033282;28;20034;-79
2021/09/03 00:55:09;;;;;;;16.27;7.45;;;461.00;2380.80;;;;;;5032558;28;20025;-79
2021/09/03 00:57:35;;;;;;;14.05;6.95;;;461.00;2380.80;;;;;;5032884;28;20071;-79
2021/09/03 01:00:00;;;;;;;10.48;7.35;;;461.00;2380.80;;;;;;5032418;28;20440;-78
2021/09/03 01:02:26;;;;;;;12.68;7.55;;;461.00;2380.80;;;;;;5032507;28;20045;-76
2021/09/03 01:04:52;;;;;;;14.45;7.72;;;461.00;2380.80;;;;;;5032442;28;20021;-77
2021/09/03 01:07:18;;;;;;;11.13;6.75;;;461.10;2380.80;;;;;;5031956;28;20076;-77
2021/09/03 01:09:44;;;;;;;10.68;6.75;;;461.10;2380.80;;;;;;5032372;28;20026;-79
2021/09/03 01:12:10;;;;;;;10.18;7.53;;;461.10;2380.80;;;;;;5032200;28;20107;-77
2021/09/03 01:14:36;;;;;;;14.27;7.97;;;436.00;2355.20;;;;;;5031946;28;20125;-78
2021/09/03 01:17:02;;;;;;;11.88;7.60;;;435.80;2355.20;;;;;;5032236;28;20025;-80
2021/09/03 01:19:28;;;;;;;12.88;7.60;;;435.60;2355.20;;;;;;5033522;28;20021;-77
2021/09/03 01:21:54;;;;;;;10.98;8.30;;;435.50;2355.20;;;;;;5031903;28;20059;-79
2021/09/03 01:24:20;;;;;;;14.18;8.13;;;435.80;2355.20;;;;;;5032455;28;20099;-80
2021/09/03 01:26:46;;;;;;;13.38;7.75;;;435.90;2355.20;;;;;;5031986;28;20461;-78
2021/09/03 01:29:12;;;;;;;12.77;7.80;;;435.60;2355.20;;;;;;5031673;28;20106;-78
2021/09/03 01:31:41;;;;;;;10.70;7.45;;;435.80;2355.20;;;;;;5031989;28;20029;-77
2021/09/03 01:34:07;;;;;;;11.30;7.28;;;435.90;2355.20;;;;;;5031626;28;20032;-80
2021/09/03 01:36:33;;;;;;;15.02;7.88;;;436.00;2355.20;;;;;;5032065;28;20026;-80
2021/09/03 01:39:00;;;;;;;11.68;6.75;;;436.00;2355.20;;;;;;5032063;28;20030;-77
2021/09/03 01:41:26;;;;;;;12.27;6.93;;;436.10;2355.20;;;;;;5031966;28;20025;-76
2021/09/03 01:43:52;;;;;;;10.65;7.25;;;436.10;2355.20;;;;;;5031927;28;20378;-78
2021/09/03 01:46:19;;;;;;;12.35;7.50;;;436.00;2355.20;;;;;;5032215;28;20033;-79
2021/09/03 01:48:45;;;;;;;14.02;7.68;;;436.00;2355.20;;;;;;5034329;28;20032;-77
2021/09/03 01:51:11;;;;;;;12.73;7.57;;;436.10;2355.20;;;;;;5036727;28;20064;-80
2021/09/03 01:53:37;;;;;;;11.52;8.10;;;436.10;2355.20;;;;;;5035846;28;20036;-76
2021/09/03 01:56:04;;;;;;;10.93;7.18;;;435.90;2355.20;;;;;;5035354;28;20034;-80
2021/09/03 01:58:30;;;;;;;13.52;7.93;;;435.80;2355.20;;;;;;5035663;28;20029;-79
2021/09/03 02:00:56;;;;;;;12.00;7.72;;;435.80;2355.20;;;;;;5035237;28;20036;-80
2021/09/03 02:03:21;;;;;;;13.27;7.70;;;435.90;2355.20;;;;;;5035287;28;20120;-80
2021/09/03 02:05:47;;;;;;;10.88;7.60;;;435.90;2355.20;;;;;;5036466;28;20108;-78
2021/09/03 02:08:13;;;;;;;12.93;7.80;;;436.00;2355.20;;;;;;5035546;28;20033;-78
2021/09/03 02:10:39;;;;;;;13.38;9.00;;;435.60;2355.20;;;;;;5034966;28;20064;-79
2021/09/03 02:13:05;;;;;;;10.70;7.25;;;435.60;2355.20;;;;;;5035165;28;20030;-80
2021/09/03 02:15:30;;;;;;;10.48;7.60;;;435.70;2355.20;;;;;;5035088;28;20033;-79
2021/09/03 02:17:56;;;;;;;12.77;8.27;;;435.70;2355.20;;;;;;5034840;28;20030;-76
2021/09/03 02:20:22;;;;;;;9.85;7.55;;;435.70;2355.20;;;;;;5035831;28;20112;-78
2021/09/03 02:22:48;;;;;;;12.35;8.45;;;435.70;2355.20;;;;;;5034319;28;20072;-78
2021/09/03 02:25:14;;;;;;;15.98;7.82;;;435.70;2355.20;;;;;;5034730;28;20029;-80
2021/09/03 02:27:39;;;;;;;13.50;7.57;;;435.90;2355.20;;;;;;5034934;28;20397;-78
2021/09/03 02:30:06;;;;;;;11.63;6.93;;;435.90;2355.20;;;;;;5034150;28;20188;-80
2021/09/03 02:32:32;;;;;;;13.00;7.00;;;435.90;2355.20;;;;;;5034717;28;20541;-76
2021/09/03 02:34:58;;;;;;;11.13;7.35;;;436.00;2355.20;;;;;;5035021;28;20108;-77
2021/09/03 02:37:24;;;;;;;10.13;7.25;;;435.90;2355.20;;;;;;5034427;28;20026;-78
2021/09/03 02:39:50;;;;;;;9.35;6.53;;;435.90;2355.20;;;;;;5034783;28;20022;-78
2021/09/03 02:42:15;;;;;;;11.40;7.45;;;435.90;2355.20;;;;;;5035974;28;20025;-75
2021/09/03 02:44:42;;;;;;;11.07;7.47;;;435.90;2355.20;;;;;;5034776;28;20025;-80
2021/09/03 02:47:08;;;;;;;10.88;7.53;;;435.80;2355.20;;;;;;5035940;28;20033;-77
2021/09/03 02:49:34;;;;;;;13.18;7.10;;;435.70;2355.20;;;;;;5035808;28;20373;-78
2021/09/03 02:52:00;;;;;;;10.63;7.30;;;435.70;2355.20;;;;;;5035053;28;20137;-78
2021/09/03 02:54:25;;;;;;;15.30;7.50;;;435.70;2355.20;;;;;;5034741;28;20452;-78
2021/09/03 02:56:51;;;;;;;11.75;7.10;;;435.50;2355.20;;;;;;5034484;28;20116;-80
2021/09/03 02:59:17;;;;;;;12.07;8.10;;;435.60;2355.20;;;;;;5033883;28;20025;-78
2021/09/03 03:01:43;;;;;;;14.90;6.70;;;435.50;2355.20;;;;;;5035595;28;20025;-79
2021/09/03 03:04:09;;;;;;;9.82;7.57;;;435.40;2355.20;;;;;;5035764;28;20025;-81
2021/09/03 03:06:34;;;;;;;12.07;8.15;;;435.50;2355.20;;;;;;5033936;28;20461;-82
2021/09/03 03:09:00;;;;;;;11.90;7.25;;;435.40;2355.20;;;;;;5034382;28;20128;-81
2021/09/03 03:11:26;;;;;;;11.70;7.95;;;435.40;2355.20;;;;;;5034442;28;20516;-80
2021/09/03 03:14:02;;;;;;;10.85;7.45;;;435.40;2355.20;;;;;;5033923;28;20546;-79
2021/09/03 03:16:28;;;;;;;12.43;7.13;;;435.30;2355.20;;;;;;5035977;28;20033;-79
2021/09/03 03:18:53;;;;;;;13.38;8.30;;;435.30;2355.20;;;;;;5033832;28;20362;-80
2021/09/03 03:21:19;;;;;;;10.80;8.07;;;435.20;2355.20;;;;;;5034013;28;20022;-79
2021/09/03 03:23:45;;;;;;;11.05;7.65;;;435.20;2355.20;;;;;;5033761;28;20033;-79
2021/09/03 03:26:11;;;;;;;13.43;7.72;;;410.40;2355.20;;;;;;5033851;28;20029;-78
2021/09/03 03:28:37;;;;;;;11.18;7.90;;;410.40;2355.20;;;;;;5034877;28;20045;-78
2021/09/03 03:31:03;;;;;;;13.18;8.35;;;410.30;2355.20;;;;;;5035429;28;20025;-78
2021/09/03 03:33:30;;;;;;;11.73;8.48;;;410.00;2355.20;;;;;;5033078;28;20042;-78
2021/09/03 03:35:56;;;;;;;11.77;8.30;;;410.00;2355.20;;;;;;5033731;28;20120;-77
2021/09/03 03:38:21;;;;;;;10.95;7.50;;;410.20;2355.20;;;;;;5033502;28;20083;-78
2021/09/03 03:40:47;;;;;;;11.30;7.80;;;410.10;2355.20;;;;;;5033322;28;20071;-78
2021/09/03 03:43:13;;;;;;;13.10;8.13;;;410.10;2355.20;;;;;;5033432;28;20116;-79
2021/09/03 03:45:39;;;;;;;12.52;8.27;;;410.10;2355.20;;;;;;5033396;28;20026;-80
2021/09/03 03:48:05;;;;;;;15.73;8.75;;;410.10;2355.20;;;;;;5033138;28;20057;-80
2021/09/03 03:50:31;;;;;;;10.85;8.25;;;410.00;2355.20;;;;;;5034465;28;20382;-78
2021/09/03 03:52:56;;;;;;;14.30;8.40;;;410.00;2355.20;;;;;;5033228;28;20116;-77
2021/09/03 03:55:22;;;;;;;10.43;8.25;;;410.00;2355.20;;;;;;5032932;28;20416;-79
2021/09/03 03:57:48;;;;;;;21.67;9.00;;;410.00;2355.20;;;;;;5033227;28;20123;-77
2021/09/03 04:00:14;;;;;;;11.35;8.90;;;410.00;2355.20;;;;;;5033136;28;20044;-79
2021/09/03 04:02:40;;;;;;;11.95;8.98;;;435.20;2355.20;;;;;;5033151;28;20029;-81
2021/09/03 04:05:06;;;;;;;14.48;8.95;;;410.00;2355.20;;;;;;5033047;28;20385;-76
2021/09/03 04:07:32;;;;;;;12.48;8.88;;;410.10;2355.20;;;;;;5032624;28;20082;-80
2021/09/03 04:09:58;;;;;;;12.15;8.63;;;410.20;2355.20;;;;;;5032393;28;20025;-79
2021/09/03 04:12:24;;;;;;;9.40;8.20;;;410.10;2355.20;;;;;;5032868;28;20420;-77
2021/09/03 04:14:50;;;;;;;12.57;7.57;;;410.00;2355.20;;;;;;5032619;28;20025;-80
2021/09/03 04:17:16;;;;;;;18.83;9.38;;;410.20;2355.20;;;;;;5033054;28;20056;-77
2021/09/03 04:19:43;;;;;;;13.40;9.15;;;409.90;2355.20;;;;;;5032857;28;20434;-80
2021/09/03 04:22:08;;;;;;;12.93;9.60;;;384.60;2329.60;;;;;;5032474;28;20060;-76
2021/09/03 04:24:34;;;;;;;18.50;10.18;;;384.70;2329.60;;;;;;5032739;28;20025;-77
2021/09/03 04:27:00;;;;;;;16.13;9.43;;;409.60;2355.20;;;;;;5032711;28;20029;-78
2021/09/03 04:29:27;;;;;;;14.88;9.45;;;409.70;2355.20;;;;;;5032439;28;20052;-78
2021/09/03 04:31:53;;;;;;;13.52;9.25;;;409.90;2355.20;;;;;;5032760;28;20124;-76
2021/09/03 04:34:19;;;;;;;13.65;9.52;;;409.90;2355.20;;;;;;5032744;28;20436;-78
2021/09/03 04:36:45;;;;;;;14.10;9.88;;;409.90;2355.20;;;;;;5032402;28;20116;-78
2021/09/03 04:39:10;;;;;;;15.20;10.77;;;410.00;2355.20;;;;;;5032808;28;20036;-75
2021/09/03 04:41:36;;;;;;;18.40;10.70;;;409.60;2355.20;;;;;;5033855;28;20082;-79
2021/09/03 04:44:02;;;;;;;14.95;10.07;;;409.60;2355.20;;;;;;5032275;28;20415;-76
2021/09/03 04:46:28;;;;;;;21.15;10.00;;;409.60;2355.20;;;;;;5032690;28;20032;-77
2021/09/03 04:48:54;;;;;;;16.75;13.02;;;409.60;2355.20;;;;;;5032709;28;20116;-80
2021/09/03 04:51:19;;;;;;;17.85;11.85;;;384.60;2329.60;;;;;;5032167;28;20474;-77
2021/09/03 04:53:45;;;;;;;22.42;14.55;;;384.60;2329.60;;;;;;5032350;28;20124;-76
2021/09/03 04:56:11;;;;;;;17.10;11.85;;;384.40;2329.60;;;;;;5032318;28;20029;-75
2021/09/03 04:58:37;;;;;;;17.08;10.93;;;384.40;2329.60;;;;;;5031967;28;20033;-78
2021/09/03 05:01:03;;;;;;;16.50;10.05;;;384.30;2329.60;;;;;;5032281;28;20117;-77
2021/09/03 05:03:28;;;;;;;17.27;11.15;;;384.50;2329.60;;;;;;5032262;28;20384;-79
2021/09/03 05:05:54;;;;;;;21.50;10.48;;;384.30;2329.60;;;;;;5032035;28;20025;-81
2021/09/03 05:08:20;;;;;;;13.80;10.38;;;384.50;2329.60;;;;;;5032213;28;20469;-80
2021/09/03 05:10:46;;;;;;;15.00;9.23;;;384.40;2329.60;;;;;;5032078;28;20032;-80
2021/09/03 05:13:12;;;;;;;16.17;10.90;;;384.40;2329.60;;;;;;5032231;28;20029;-80
2021/09/03 05:15:41;;;;;;;13.13;9.98;;;384.30;2329.60;;;;;;5032234;28;20026;-81
2021/09/03 05:18:07;;;;;;;16.58;10.80;;;384.70;2329.60;;;;;;5032958;28;20025;-79
2021/09/03 05:20:33;;;;;;;17.58;10.57;;;384.80;2329.60;;;;;;5031981;28;20461;-76
2021/09/03 05:22:59;;;;;;;15.65;11.15;;;384.80;2329.60;;;;;;5035396;28;20079;-80
2021/09/03 05:25:25;;;;;;;17.30;11.82;;;384.90;2329.60;;;;;;5035689;28;20461;-80
2021/09/03 05:27:51;;;;;;;16.85;11.93;;;384.80;2329.60;;;;;;5036020;28;20072;-79
2021/09/03 05:30:17;;;;;;;17.95;12.27;;;384.80;2329.60;;;;;;5036068;28;20464;-78
2021/09/03 05:32:44;;;;;;;15.63;11.23;;;409.60;2355.20;;;;;;5035683;28;20052;-80
2021/09/03 05:35:10;;;;;;;19.88;11.70;;;409.60;2355.20;;;;;;5035911;28;20033;-77
2021/09/03 05:37:37;;;;;;;18.83;11.73;;;409.70;2355.20;;;;;;5035748;28;20029;-79
2021/09/03 05:40:05;;;;;;;18.63;11.27;;;409.70;2355.20;;;;;;5035423;28;20036;-76
2021/09/03 05:42:31;;;;;;;16.00;11.45;;;409.70;2355.20;;;;;;5035450;28;20040;-77
2021/09/03 05:44:56;;;;;;;17.00;10.85;;;409.60;2355.20;;;;;;5035717;28;20029;-79
2021/09/03 05:47:22;;;;;;;17.38;12.00;;;409.70;2355.20;;;;;;5035528;28;20029;-77
2021/09/03 05:49:48;;;;;;;20.38;13.55;;;409.70;2355.20;;;;;;5035763;28;20029;-77
2021/09/03 05:52:14;;;;;;;29.90;20.75;;;409.80;2355.20;;;;;;5035505;28;20483;-77
2021/09/03 05:54:40;;;;;;;28.05;19.70;;;409.80;2355.20;;;;;;5035272;28;20037;-83
2021/09/03 05:57:06;;;;;;;22.23;16.00;;;409.90;2355.20;;;;;;5035441;28;20026;-79
2021/09/03 05:59:32;;;;;;;27.08;19.50;;;410.10;2355.20;;;;;;5036419;28;20060;-79
2021/09/03 06:01:58;;;;;;;29.73;19.08;;;410.30;2355.20;;;;;;5035448;28;20041;-78
2021/09/03 06:04:24;;;;;;;32.22;18.30;;;410.50;2355.20;;;;;;5035455;28;20400;-79
2021/09/03 06:06:50;;;;;;;34.63;23.45;;;410.50;2355.20;;;;;;5035059;28;20095;-81
2021/09/03 06:09:16;;;;;;;44.72;29.33;;;435.30;2355.20;;;;;;5036598;28;20025;-76
2021/09/03 06:11:41;;;;;;;35.67;23.85;;;435.40;2355.20;;;;;;5035499;28;20083;-78
2021/09/03 06:14:07;;;;;;;41.22;29.65;;;435.30;2355.20;;;;;;5035046;28;20029;-80
2021/09/03 06:16:33;;;;;;;41.63;24.20;;;435.50;2355.20;;;;;;5035502;28;20037;-77
2021/09/03 06:18:59;;;;;;;35.00;20.77;;;435.50;2355.20;;;;;;5034702;28;20057;-78
2021/09/03 06:21:25;;;;;;;31.05;19.70;;;435.50;2355.20;;;;;;5034199;28;20424;-82
2021/09/03 06:23:51;;;;;;;24.42;14.30;;;435.60;2355.20;;;;;;5036147;28;20037;-78
2021/09/03 06:26:16;;;;;;;17.88;12.13;;;435.60;2355.20;;;;;;5035286;28;20242;-77
2021/09/03 06:28:42;;;;;;;17.00;11.52;;;435.80;2355.20;;;;;;5035794;28;20524;-80
2021/09/03 06:31:08;;;;;;;17.48;11.43;;;435.80;2355.20;;;;;;5036271;28;20080;-77
2021/09/03 06:33:34;;;;;;;17.35;10.30;;;435.90;2355.20;;;;;;5033449;28;20538;-79
2021/09/03 06:35:59;;;;;;;18.85;10.95;;;436.00;2355.20;;;;;;5034105;28;20053;-78
2021/09/03 06:38:27;;;;;;;12.20;8.43;;;436.10;2355.20;;;;;;5034200;28;20115;-75
2021/09/03 06:40:53;;;;;;;9.98;7.55;;;460.80;2380.80;;;;;;5034790;28;20029;-78
2021/09/03 06:43:19;;;;;;;14.02;8.02;;;460.80;2380.80;;;;;;5035714;28;20132;-79
2021/09/03 06:45:45;;;;;;;11.85;7.32;;;460.80;2380.80;;;;;;5036264;28;20033;-75
2021/09/03 06:48:10;;;;;;;11.68;7.20;;;436.10;2355.20;;;;;;5034608;28;20116;-78
2021/09/03 06:50:36;;;;;;;12.75;9.13;;;460.80;2380.80;;;;;;5034215;28;20426;-76
2021/09/03 06:53:02;;;;;;;14.73;10.00;;;460.90;2380.80;;;;;;5034582;28;20488;-76
2021/09/03 06:55:28;;;;;;;12.20;8.40;;;461.10;2380.80;;;;;;5034817;28;20524;-79
2021/09/03 06:57:54;;;;;;;10.88;8.45;;;461.10;2380.80;;;;;;5035383;28;20072;-77
2021/09/03 07:00:19;;;;;;;14.57;8.90;;;461.20;2380.80;;;;;;5034376;28;20529;-78
2021/09/03 07:02:45;;;;;;;13.45;9.10;;;461.30;2380.80;;;;;;5034193;28;20034;-77
2021/09/03 07:05:12;;;;;;;10.23;7.55;;;461.40;2380.80;;;;;;5037879;28;20040;-78
2021/09/03 07:07:38;;;;;;;11.07;7.85;;;461.50;2380.80;;;;;;5037177;28;20044;-75
2021/09/03 07:10:05;;;;;;;12.73;7.65;;;461.60;2380.80;;;;;;5035030;28;20029;-78
2021/09/03 07:12:31;;;;;;;12.85;7.93;;;461.70;2380.80;;;;;;5034225;28;20136;-79
2021/09/03 07:14:57;;;;;;;11.05;7.40;;;461.70;2380.80;;;;;;5034377;28;20121;-80
2021/09/03 07:17:22;;;;;;;12.73;8.57;;;461.70;2380.80;;;;;;5034178;28;20044;-78
2021/09/03 07:19:48;;;;;;;12.60;7.82;;;486.40;2380.80;;;;;;5035171;28;20021;-81
2021/09/03 07:22:14;;;;;;;11.60;7.97;;;486.50;2380.80;;;;;;5036077;28;20468;-81
2021/09/03 07:24:40;;;;;;;11.68;7.68;;;486.50;2380.80;;;;;;5036281;28;20472;-81
2021/09/03 07:27:06;;;;;;;10.32;7.20;;;486.50;2380.80;;;;;;5034324;28;20025;-78
2021/09/03 07:29:32;;;;;;;11.07;8.02;;;486.50;2380.80;;;;;;5034021;28;20477;-78
2021/09/03 07:31:57;;;;;;;12.00;7.80;;;486.70;2380.80;;;;;;5035381;28;20036;-77
2021/09/03 07:34:23;;;;;;;12.95;7.63;;;486.80;2380.80;;;;;;5034870;28;20484;-81
2021/09/03 07:36:49;;;;;;;10.40;7.25;;;486.80;2380.80;;;;;;5033745;28;20026;-80
2021/09/03 07:39:19;;;;;;;12.80;7.40;;;487.00;2380.80;;;;;;5033365;28;20109;-77
2021/09/03 07:41:45;;;;;;;17.83;9.55;;;487.20;2380.80;;;;;;5034343;28;20064;-79
2021/09/03 07:44:11;;;;;;;9.75;7.32;;;487.30;2380.80;;;;;;5034414;28;20052;-79
2021/09/03 07:46:37;;;;;;;10.40;7.07;;;512.10;2380.80;;;;;;5032298;28;20029;-78
2021/09/03 07:49:05;;;;;;;11.73;7.25;;;512.20;2380.80;;;;;;5033447;28;20080;-81
2021/09/03 07:51:31;;;;;;;14.27;7.43;;;512.20;2380.80;;;;;;5032814;28;20025;-78
2021/09/03 07:53:57;;;;;;;8.80;6.68;;;512.20;2380.80;;;;;;5033345;28;20037;-79
2021/09/03 07:56:23;;;;;;;9.82;6.80;;;512.50;2380.80;;;;;;5033453;28;20025;-77
2021/09/03 07:58:49;;;;;;;9.10;6.72;;;512.50;2380.80;;;;;;5033368;28;20036;-78
2021/09/03 08:01:15;;;;;;;11.30;7.15;;;512.60;2380.80;;;;;;5031987;28;20416;-77
2021/09/03 08:03:40;;;;;;;10.18;6.60;;;512.90;2380.80;;;;;;5032585;28;20033;-79
2021/09/03 08:06:06;;;;;;;11.63;6.82;;;537.60;2406.40;;;;;;5032038;28;20385;-77
2021/09/03 08:08:32;;;;;;;11.00;6.05;;;537.60;2406.40;;;;;;5033973;28;20034;-78
2021/09/03 08:10:58;;;;;;;10.60;6.68;;;537.60;2406.40;;;;;;5034301;28;20018;-79
2021/09/03 08:13:24;;;;;;;9.50;6.13;;;537.80;2406.40;;;;;;5032162;28;20045;-79
2021/09/03 08:15:50;;;;;;;8.32;6.25;;;538.00;2406.40;;;;;;5032909;28;20034;-79
2021/09/03 08:18:15;;;;;;;9.15;6.30;;;538.10;2406.40;;;;;;5032932;28;20025;-79
2021/09/03 08:20:45;;;;;;;11.52;7.68;;;538.10;2406.40;;;;;;5031577;28;20068;-77
2021/09/03 08:23:11;;;;;;;11.32;8.50;;;538.10;2406.40;;;;;;5031988;28;20511;-79
2021/09/03 08:25:37;;;;;;;11.68;6.82;;;538.30;2406.40;;;;;;5033656;28;20028;-77
2021/09/03 08:28:03;;;;;;;11.95;6.72;;;538.40;2406.40;;;;;;5032705;28;20025;-79
2021/09/03 08:30:29;;;;;;;11.90;6.90;;;538.50;2406.40;;;;;;5032786;28;20049;-79
2021/09/03 08:32:55;;;;;;;11.70;6.78;;;563.20;2432.00;;;;;;5034487;28;20037;-79
2021/09/03 08:35:22;;;;;;;9.93;6.43;;;563.40;2432.00;;;;;;5042497;28;20388;-77
2021/09/03 08:37:48;;;;;;;8.90;6.63;;;563.40;2432.00;;;;;;5039742;28;20037;-79
2021/09/03 08:40:14;;;;;;;11.02;7.35;;;563.50;2432.00;;;;;;5034648;28;20030;-77
2021/09/03 08:42:41;;;;;;;10.10;6.80;;;563.40;2432.00;;;;;;5033118;28;20484;-80
2021/09/03 08:45:10;;;;;;;8.70;7.15;;;563.50;2432.00;;;;;;5044274;28;20040;-79
2021/09/03 08:47:39;;;;;;;10.55;6.07;;;563.60;2432.00;;;;;;5033268;28;20083;-78
2021/09/03 08:50:06;;;;;;;12.02;7.15;;;563.60;2432.00;;;;;;5033457;28;20022;-78
2021/09/03 08:52:32;;;;;;;12.18;6.75;;;564.00;2432.00;;;;;;5032498;28;20033;-78
2021/09/03 08:54:57;;;;;;;10.05;7.00;;;564.10;2432.00;;;;;;5032984;28;20022;-78
2021/09/03 08:57:23;;;;;;;9.38;6.65;;;588.80;2432.00;;;;;;5038048;28;20061;-78
2021/09/03 08:59:49;;;;;;;10.77;6.13;;;588.90;2432.00;;;;;;5038704;28;20064;-77
2021/09/03 09:02:20;;;;;;;7.53;5.63;;;589.00;2432.00;;;;;;5039969;28;20108;-78
2021/09/03 09:04:52;;;;;;;9.32;6.40;;;589.10;2432.00;;;;;;5038932;28;20546;-79
2021/09/03 09:07:19;;;;;;;7.57;5.95;;;589.10;2432.00;;;;;;5038579;28;20028;-77
2021/09/03 09:09:49;;;;;;;8.45;6.38;;;588.90;2432.00;;;;;;5039129;28;20535;-80
2021/09/03 09:12:17;;;;;;;8.18;5.65;;;589.10;2406.40;;;;;;5039712;28;20079;-77
2021/09/03 09:15:01;;;;;;;8.35;5.63;;;589.20;2380.80;;;;;;5038895;28;20030;-78
2021/09/03 09:17:31;;;;;;;11.35;5.65;;;589.20;2329.60;;;;;;5038884;28;20457;-77
2021/09/03 09:19:58;;;;;;;8.60;5.53;;;589.20;2329.60;;;;;;5038483;28;20029;-75
2021/09/03 09:22:24;;;;;;;10.63;7.32;;;589.20;2278.40;;;;;;5039173;28;20034;-75
2021/09/03 09:24:50;;;;;;;8.70;5.43;;;589.50;2278.40;;;;;;5038992;28;20059;-76
2021/09/03 09:27:26;;;;;;;7.75;6.03;;;589.60;2278.40;;;;;;5038413;28;20113;-77
2021/09/03 09:29:53;;;;;;;8.25;5.70;;;589.70;2252.80;;;;;;5040018;28;20057;-75
2021/09/03 09:32:25;;;;;;;8.40;4.90;;;589.70;2201.60;;;;;;5040198;28;20068;-76
2021/09/03 09:34:56;;;;;;;8.93;5.20;;;614.40;2150.40;;;;;;5038404;28;20033;-78
2021/09/03 09:37:21;;;;;;;12.93;7.57;;;614.60;2124.80;;;;;;5039930;28;20071;-77
2021/09/03 09:39:57;;;;;;;11.52;6.30;;;614.80;2124.80;;;;;;5038743;28;20475;-76
2021/09/03 09:42:30;;;;;;;13.38;6.03;;;614.90;2073.60;;;;;;5041225;28;20354;-77
2021/09/03 09:45:08;;;;;;;9.63;7.57;;;615.10;2099.20;;;;;;5040259;28;20026;-76
2021/09/03 09:47:36;;;;;;;9.35;7.55;;;615.10;2099.20;;;;;;5038603;28;20473;-78
2021/09/03 09:50:24;;;;;;;8.40;6.47;;;615.20;2073.60;;;;;;5040635;28;20021;-77
2021/09/03 09:52:50;;;;;;;11.10;8.10;;;615.20;2048.00;;;;;;5038572;28;20099;-77
2021/09/03 09:55:16;;;;;;;8.82;5.75;;;640.10;2048.00;;;;;;5038869;28;20461;-78
2021/09/03 09:57:43;;;;;;;10.43;5.90;;;615.30;1971.20;;;;;;5039186;28;20049;-78
2021/09/03 10:00:09;;;;;;;10.27;6.72;;;640.10;1996.80;;;;;;5040566;28;20022;-78
2021/09/03 10:02:37;;;;;;;10.15;7.40;;;640.30;1996.80;;;;;;5038937;28;20056;-76
2021/09/03 10:05:05;;;;;;;8.32;5.88;;;640.50;1971.20;;;;;;5039351;28;20052;-77
2021/09/03 10:07:32;;;;;;;6.40;4.50;;;640.40;1971.20;;;;;;5039088;28;20472;-81
2021/09/03 10:09:57;;;;;;;11.07;3.90;;;640.50;1920.00;;;;;;5035913;28;20099;-79
2021/09/03 10:12:24;;;;;;;11.35;9.45;;;640.70;1868.80;;;;;;5034738;28;20469;-79
2021/09/03 10:14:50;;;;;;;7.75;5.82;;;665.60;1945.60;;;;;;5035998;28;20021;-80
2021/09/03 10:17:19;;;;;;;12.23;6.18;;;640.90;1894.40;;;;;;5042665;28;20022;-77
2021/09/03 10:19:49;;;;;;;13.20;9.32;;;;;;;;;;5042066;28;20021;-80
2021/09/03 10:22:21;;;;;;;12.35;7.22;;;666.40;1868.80;;;;;;5033971;28;20021;-80
2021/09/03 10:24:47;;;;;;;6.40;5.22;;;691.30;1843.20;;;;;;5036421;28;20037;-80
2021/09/03 10:27:15;;;;;;;7.53;5.07;;;666.10;1843.20;;;;;;5033901;28;20124;-78
2021/09/03 10:29:46;;;;;;;6.72;5.43;;;665.60;1868.80;;;;;;5035009;28;20064;-78
2021/09/03 10:32:20;;;;;;;9.93;6.07;;;665.80;1868.80;;;;;;5035486;28;20041;-77
2021/09/03 10:34:51;;;;;;;7.63;5.10;;;666.20;1843.20;;;;;;5033684;28;20251;-79
2021/09/03 10:37:23;;;;;;;6.07;3.65;;;691.20;1792.00;;;;;;5035552;28;20017;-77
2021/09/03 10:39:55;;;;;;;8.10;4.47;;;666.00;1792.00;;;;;;5031918;28;20026;-78
2021/09/03 10:42:45;;;;;;;7.95;4.63;;;666.10;1817.60;;;;;;5033838;28;20056;-76
2021/09/03 10:45:14;;;;;;;5.40;3.80;;;666.30;1792.00;;;;;;5029647;28;20108;-79
2021/09/03 10:47:47;;;;;;;8.63;4.57;;;666.00;1843.20;;;;;;5033447;28;20033;-78
2021/09/03 10:50:32;;;;;;;9.68;7.55;;;665.60;1868.80;;;;;;5032970;28;20030;-76
2021/09/03 10:53:05;;;;;;;8.85;4.55;;;640.70;1894.40;;;;;;5032276;28;20033;-77
2021/09/03 10:55:50;;;;;;;;;;;640.70;1894.40;;;;;;5029980;28;20241;-77
2021/09/03 10:58:48;;;;;;;7.70;4.47;;;640.50;1894.40;;;;;;5034050;28;19905;-76
2021/09/03 11:01:18;;;;;;;7.07;4.82;;;640.40;1894.40;;;;;;5034411;28;20063;-76
2021/09/03 11:03:51;;;;;;;6.82;4.80;;;640.40;1945.60;;;;;;5035836;28;20527;-78
2021/09/03 11:06:26;;;;;;;9.70;4.95;;;640.30;1945.60;;;;;;5034649;28;20071;-77
2021/09/03 11:08:54;;;;;;;9.27;5.00;;;640.80;1868.80;;;;;;5035274;28;20366;-77
2021/09/03 11:11:34;;;;;;;6.18;4.90;;;666.10;1868.80;;;;;;5030361;28;20025;-77
2021/09/03 11:14:05;;;;;;;9.68;5.82;;;666.50;1868.80;;;;;;5015624;28;20034;-76
2021/09/03 11:16:31;;;;;;;7.18;5.22;;;691.60;1843.20;;;;;;5014207;28;20026;-74
2021/09/03 11:19:01;;;;;;;8.18;5.07;;;691.40;1817.60;;;;;;5015087;28;20022;-76
2021/09/03 11:21:31;;;;;;;8.82;4.68;;;691.40;1792.00;;;;;;5014329;28;20117;-78
2021/09/03 11:23:58;;;;;;;5.75;4.20;;;691.40;1792.00;;;;;;5014588;28;20080;-78
2021/09/03 11:26:27;;;;;;;7.53;4.70;;;691.30;1792.00;;;;;;5013832;28;20069;-78
2021/09/03 11:28:53;;;;;;;5.20;3.83;;;666.50;1792.00;;;;;;5013798;28;20553;-77
2021/09/03 11:31:19;;;;;;;7.80;4.10;;;666.50;1766.40;;;;;;5022005;28;20045;-77
2021/09/03 11:33:46;;;;;;;13.43;4.45;;;666.10;1766.40;;;;;;5034548;28;20033;-76
2021/09/03 11:36:13;;;;;;;8.15;4.38;;;691.30;1766.40;;;;;;5033822;28;20022;-78
2021/09/03 11:38:40;;;;;;;8.80;5.20;;;691.90;1766.40;;;;;;5033769;28;20114;-78
2021/09/03 11:41:12;;;;;;;6.22;4.22;;;691.90;1766.40;;;;;;5033528;28;20060;-78
2021/09/03 11:43:38;;;;;;;9.68;4.25;;;691.60;1689.60;;;;;;5033580;28;20029;-78
2021/09/03 11:46:18;;;;;;;7.60;5.22;;;691.20;1715.20;;;;;;5033536;28;20036;-77
2021/09/03 11:48:46;;;;;;;7.05;4.78;;;691.20;1766.40;;;;;;5034760;28;20049;-77
2021/09/03 11:51:22;;;;;;;8.10;4.10;;;691.20;1766.40;;;;;;5033755;28;20033;-78
2021/09/03 11:53:48;;;;;;;6.55;4.05;;;691.90;1740.80;;;;;;5033365;28;20102;-77
2021/09/03 11:56:17;;;;;;;8.25;4.47;;;691.70;1740.80;;;;;;5033032;28;20022;-79
2021/09/03 11:58:43;;;;;;;9.38;4.13;;;691.40;1740.80;;;;;;5033101;28;20479;-77
2021/09/03 12:01:11;;;;;;;6.35;4.10;;;691.30;1766.40;;;;;;5032783;28;20068;-78
2021/09/03 12:03:44;;;;;;;6.25;3.95;;;666.40;1766.40;;;;;;5034419;28;20040;-76
2021/09/03 12:06:18;;;;;;;5.53;3.80;;;666.00;1792.00;;;;;;5032350;28;20555;-78
2021/09/03 12:08:45;;;;;;;6.97;3.95;;;665.90;1792.00;;;;;;5031671;28;20063;-77
2021/09/03 12:11:13;;;;;;;7.80;4.20;;;666.30;1792.00;;;;;;5033333;28;20030;-79